sensor_id;sensor_type;location;lat;lon;timestamp;P1;durP1;ratioP1;P2;durP2;ratioP2
59273;SDS011;45044;41.572;24.730;2024-03-25T00:01:35;24.60;;;16.20;;
59273;SDS011;45044;41.572;24.730;2024-03-25T00:04:00;47.60;;;26.58;;
59273;SDS011;45044;41.572;24.730;2024-03-25T00:06:26;41.58;;;23.67;;
59273;SDS011;45044;41.572;24.730;2024-03-25T00:08:52;46.13;;;24.25;;
59273;SDS011;45044;41.572;24.730;2024-03-25T00:11:18;62.10;;;31.83;;
59273;SDS011;45044;41.572;24.730;2024-03-25T00:13:43;83.45;;;42.40;;
59273;SDS011;45044;41.572;24.730;2024-03-25T00:16:09;53.42;;;28.58;;
59273;SDS011;45044;41.572;24.730;2024-03-25T00:18:35;42.22;;;24.50;;
59273;SDS011;45044;41.572;24.730;2024-03-25T00:21:00;27.08;;;17.13;;
59273;SDS011;45044;41.572;24.730;2024-03-25T00:23:26;37.38;;;21.38;;
59273;SDS011;45044;41.572;24.730;2024-03-25T00:25:52;21.13;;;12.55;;
59273;SDS011;45044;41.572;24.730;2024-03-25T00:28:18;34.40;;;18.85;;
59273;SDS011;45044;41.572;24.730;2024-03-25T00:30:46;24.17;;;12.63;;
59273;SDS011;45044;41.572;24.730;2024-03-25T00:33:12;19.13;;;11.38;;
59273;SDS011;45044;41.572;24.730;2024-03-25T00:35:38;15.13;;;9.13;;
59273;SDS011;45044;41.572;24.730;2024-03-25T00:38:04;15.52;;;8.75;;
59273;SDS011;45044;41.572;24.730;2024-03-25T00:40:30;18.48;;;10.95;;
59273;SDS011;45044;41.572;24.730;2024-03-25T00:42:56;20.38;;;11.50;;
59273;SDS011;45044;41.572;24.730;2024-03-25T00:45:22;9.88;;;5.82;;
59273;SDS011;45044;41.572;24.730;2024-03-25T00:47:50;10.57;;;6.53;;
59273;SDS011;45044;41.572;24.730;2024-03-25T00:50:16;12.10;;;7.20;;
59273;SDS011;45044;41.572;24.730;2024-03-25T00:52:42;11.95;;;5.93;;
59273;SDS011;45044;41.572;24.730;2024-03-25T00:55:08;9.50;;;6.35;;
59273;SDS011;45044;41.572;24.730;2024-03-25T00:57:34;12.13;;;6.60;;
59273;SDS011;45044;41.572;24.730;2024-03-25T00:59:59;9.77;;;6.45;;
59273;SDS011;45044;41.572;24.730;2024-03-25T01:02:25;13.38;;;7.30;;
59273;SDS011;45044;41.572;24.730;2024-03-25T01:04:52;10.15;;;5.95;;
59273;SDS011;45044;41.572;24.730;2024-03-25T01:07:19;9.75;;;5.82;;
59273;SDS011;45044;41.572;24.730;2024-03-25T01:09:45;10.20;;;5.90;;
59273;SDS011;45044;41.572;24.730;2024-03-25T01:12:11;10.50;;;7.25;;
59273;SDS011;45044;41.572;24.730;2024-03-25T01:14:37;14.60;;;9.45;;
59273;SDS011;45044;41.572;24.730;2024-03-25T01:17:02;12.30;;;7.55;;
59273;SDS011;45044;41.572;24.730;2024-03-25T01:19:28;9.75;;;6.28;;
59273;SDS011;45044;41.572;24.730;2024-03-25T01:21:54;11.02;;;6.50;;
59273;SDS011;45044;41.572;24.730;2024-03-25T01:24:20;13.30;;;6.18;;
59273;SDS011;45044;41.572;24.730;2024-03-25T01:26:45;13.02;;;7.60;;
59273;SDS011;45044;41.572;24.730;2024-03-25T01:29:11;13.73;;;7.68;;
59273;SDS011;45044;41.572;24.730;2024-03-25T01:31:38;14.57;;;9.07;;
59273;SDS011;45044;41.572;24.730;2024-03-25T01:34:03;11.48;;;7.50;;
59273;SDS011;45044;41.572;24.730;2024-03-25T01:36:29;9.27;;;5.93;;
59273;SDS011;45044;41.572;24.730;2024-03-25T01:38:55;9.35;;;6.00;;
59273;SDS011;45044;41.572;24.730;2024-03-25T01:41:21;19.10;;;7.20;;
59273;SDS011;45044;41.572;24.730;2024-03-25T01:43:48;12.20;;;7.53;;
59273;SDS011;45044;41.572;24.730;2024-03-25T01:46:14;12.05;;;6.30;;
59273;SDS011;45044;41.572;24.730;2024-03-25T01:48:42;14.05;;;9.02;;
59273;SDS011;45044;41.572;24.730;2024-03-25T01:51:09;11.15;;;6.40;;
59273;SDS011;45044;41.572;24.730;2024-03-25T01:53:35;12.95;;;7.32;;
59273;SDS011;45044;41.572;24.730;2024-03-25T01:56:00;9.30;;;5.18;;
59273;SDS011;45044;41.572;24.730;2024-03-25T01:58:28;9.98;;;6.13;;
59273;SDS011;45044;41.572;24.730;2024-03-25T02:00:56;9.52;;;6.13;;
59273;SDS011;45044;41.572;24.730;2024-03-25T02:03:22;9.70;;;6.32;;
59273;SDS011;45044;41.572;24.730;2024-03-25T02:05:52;9.30;;;5.63;;
59273;SDS011;45044;41.572;24.730;2024-03-25T02:08:22;8.55;;;4.95;;
59273;SDS011;45044;41.572;24.730;2024-03-25T02:10:49;9.95;;;5.80;;
59273;SDS011;45044;41.572;24.730;2024-03-25T02:13:16;10.00;;;6.18;;
59273;SDS011;45044;41.572;24.730;2024-03-25T02:15:42;8.32;;;5.18;;
59273;SDS011;45044;41.572;24.730;2024-03-25T02:18:07;18.85;;;10.02;;
59273;SDS011;45044;41.572;24.730;2024-03-25T02:20:33;27.83;;;15.93;;
59273;SDS011;45044;41.572;24.730;2024-03-25T02:22:59;10.45;;;6.40;;
59273;SDS011;45044;41.572;24.730;2024-03-25T02:25:25;13.45;;;8.10;;
59273;SDS011;45044;41.572;24.730;2024-03-25T02:27:51;8.27;;;5.38;;
59273;SDS011;45044;41.572;24.730;2024-03-25T02:30:17;8.60;;;5.43;;
59273;SDS011;45044;41.572;24.730;2024-03-25T02:32:42;7.47;;;4.43;;
59273;SDS011;45044;41.572;24.730;2024-03-25T02:35:10;6.93;;;4.78;;
59273;SDS011;45044;41.572;24.730;2024-03-25T02:37:39;8.70;;;5.45;;
59273;SDS011;45044;41.572;24.730;2024-03-25T02:40:06;19.65;;;8.80;;
59273;SDS011;45044;41.572;24.730;2024-03-25T02:42:35;13.43;;;7.63;;
59273;SDS011;45044;41.572;24.730;2024-03-25T02:45:02;12.60;;;6.75;;
59273;SDS011;45044;41.572;24.730;2024-03-25T02:47:28;10.20;;;5.95;;
59273;SDS011;45044;41.572;24.730;2024-03-25T02:49:54;11.77;;;6.88;;
59273;SDS011;45044;41.572;24.730;2024-03-25T02:52:20;10.23;;;5.80;;
59273;SDS011;45044;41.572;24.730;2024-03-25T02:54:46;8.48;;;5.85;;
59273;SDS011;45044;41.572;24.730;2024-03-25T02:57:12;10.00;;;5.50;;
59273;SDS011;45044;41.572;24.730;2024-03-25T02:59:38;8.60;;;4.95;;
59273;SDS011;45044;41.572;24.730;2024-03-25T03:02:03;7.80;;;4.95;;
59273;SDS011;45044;41.572;24.730;2024-03-25T03:04:29;10.15;;;6.95;;
59273;SDS011;45044;41.572;24.730;2024-03-25T03:06:55;10.00;;;5.65;;
59273;SDS011;45044;41.572;24.730;2024-03-25T03:09:21;9.73;;;5.55;;
59273;SDS011;45044;41.572;24.730;2024-03-25T03:11:47;9.07;;;4.95;;
59273;SDS011;45044;41.572;24.730;2024-03-25T03:14:13;15.68;;;10.18;;
59273;SDS011;45044;41.572;24.730;2024-03-25T03:16:38;8.32;;;5.50;;
59273;SDS011;45044;41.572;24.730;2024-03-25T03:19:04;11.23;;;6.35;;
59273;SDS011;45044;41.572;24.730;2024-03-25T03:21:30;12.25;;;6.57;;
59273;SDS011;45044;41.572;24.730;2024-03-25T03:23:56;8.70;;;4.72;;
59273;SDS011;45044;41.572;24.730;2024-03-25T03:26:22;9.10;;;5.47;;
59273;SDS011;45044;41.572;24.730;2024-03-25T03:28:55;9.23;;;5.05;;
59273;SDS011;45044;41.572;24.730;2024-03-25T03:31:21;6.75;;;4.32;;
59273;SDS011;45044;41.572;24.730;2024-03-25T03:33:50;7.60;;;4.80;;
59273;SDS011;45044;41.572;24.730;2024-03-25T03:36:17;8.63;;;5.07;;
59273;SDS011;45044;41.572;24.730;2024-03-25T03:38:43;7.35;;;4.38;;
59273;SDS011;45044;41.572;24.730;2024-03-25T03:41:09;9.38;;;5.13;;
59273;SDS011;45044;41.572;24.730;2024-03-25T03:43:35;8.90;;;4.53;;
59273;SDS011;45044;41.572;24.730;2024-03-25T03:46:01;8.95;;;5.22;;
59273;SDS011;45044;41.572;24.730;2024-03-25T03:48:28;6.15;;;3.47;;
59273;SDS011;45044;41.572;24.730;2024-03-25T03:50:54;7.43;;;4.43;;
59273;SDS011;45044;41.572;24.730;2024-03-25T03:53:23;6.80;;;4.65;;
59273;SDS011;45044;41.572;24.730;2024-03-25T03:55:53;7.68;;;5.00;;
59273;SDS011;45044;41.572;24.730;2024-03-25T03:58:21;9.10;;;4.90;;
59273;SDS011;45044;41.572;24.730;2024-03-25T04:00:48;9.48;;;6.95;;
59273;SDS011;45044;41.572;24.730;2024-03-25T04:03:14;7.15;;;4.88;;
59273;SDS011;45044;41.572;24.730;2024-03-25T04:05:40;9.27;;;4.97;;
59273;SDS011;45044;41.572;24.730;2024-03-25T04:08:06;7.70;;;5.30;;
59273;SDS011;45044;41.572;24.730;2024-03-25T04:10:31;6.07;;;3.17;;
59273;SDS011;45044;41.572;24.730;2024-03-25T04:12:57;8.05;;;4.32;;
59273;SDS011;45044;41.572;24.730;2024-03-25T04:15:23;8.15;;;4.75;;
59273;SDS011;45044;41.572;24.730;2024-03-25T04:17:49;7.13;;;4.53;;
59273;SDS011;45044;41.572;24.730;2024-03-25T04:20:15;8.98;;;3.95;;
59273;SDS011;45044;41.572;24.730;2024-03-25T04:22:42;9.38;;;5.13;;
59273;SDS011;45044;41.572;24.730;2024-03-25T04:25:08;6.65;;;3.63;;
59273;SDS011;45044;41.572;24.730;2024-03-25T04:27:42;6.05;;;3.58;;
59273;SDS011;45044;41.572;24.730;2024-03-25T04:30:09;8.48;;;6.13;;
59273;SDS011;45044;41.572;24.730;2024-03-25T04:32:36;10.13;;;7.13;;
59273;SDS011;45044;41.572;24.730;2024-03-25T04:35:03;7.18;;;4.22;;
59273;SDS011;45044;41.572;24.730;2024-03-25T04:37:29;6.60;;;4.03;;
59273;SDS011;45044;41.572;24.730;2024-03-25T04:39:56;7.88;;;4.55;;
59273;SDS011;45044;41.572;24.730;2024-03-25T04:42:22;8.00;;;5.03;;
59273;SDS011;45044;41.572;24.730;2024-03-25T04:44:48;8.80;;;5.53;;
59273;SDS011;45044;41.572;24.730;2024-03-25T04:47:14;9.07;;;5.00;;
59273;SDS011;45044;41.572;24.730;2024-03-25T04:49:42;9.30;;;5.47;;
59273;SDS011;45044;41.572;24.730;2024-03-25T04:52:09;10.90;;;5.55;;
59273;SDS011;45044;41.572;24.730;2024-03-25T04:54:35;9.02;;;5.35;;
59273;SDS011;45044;41.572;24.730;2024-03-25T04:57:01;8.88;;;4.38;;
59273;SDS011;45044;41.572;24.730;2024-03-25T04:59:27;10.38;;;4.88;;
59273;SDS011;45044;41.572;24.730;2024-03-25T05:01:52;7.70;;;4.30;;
59273;SDS011;45044;41.572;24.730;2024-03-25T05:04:18;5.82;;;4.22;;
59273;SDS011;45044;41.572;24.730;2024-03-25T05:06:45;4.93;;;2.90;;
59273;SDS011;45044;41.572;24.730;2024-03-25T05:09:11;8.15;;;3.35;;
59273;SDS011;45044;41.572;24.730;2024-03-25T05:11:37;6.15;;;3.35;;
59273;SDS011;45044;41.572;24.730;2024-03-25T05:14:02;5.75;;;3.15;;
59273;SDS011;45044;41.572;24.730;2024-03-25T05:16:28;5.63;;;2.90;;
59273;SDS011;45044;41.572;24.730;2024-03-25T05:18:54;10.32;;;3.15;;
59273;SDS011;45044;41.572;24.730;2024-03-25T05:21:19;6.32;;;3.08;;
59273;SDS011;45044;41.572;24.730;2024-03-25T05:23:45;4.43;;;2.50;;
59273;SDS011;45044;41.572;24.730;2024-03-25T05:26:11;5.53;;;3.05;;
59273;SDS011;45044;41.572;24.730;2024-03-25T05:28:36;6.90;;;3.60;;
59273;SDS011;45044;41.572;24.730;2024-03-25T05:31:06;9.48;;;5.13;;
59273;SDS011;45044;41.572;24.730;2024-03-25T05:33:33;7.35;;;3.50;;
59273;SDS011;45044;41.572;24.730;2024-03-25T05:35:59;5.15;;;2.92;;
59273;SDS011;45044;41.572;24.730;2024-03-25T05:38:26;7.05;;;3.20;;
59273;SDS011;45044;41.572;24.730;2024-03-25T05:40:52;7.65;;;3.72;;
59273;SDS011;45044;41.572;24.730;2024-03-25T05:43:18;9.02;;;4.53;;
59273;SDS011;45044;41.572;24.730;2024-03-25T05:45:51;10.27;;;5.18;;
59273;SDS011;45044;41.572;24.730;2024-03-25T05:48:19;9.40;;;5.50;;
59273;SDS011;45044;41.572;24.730;2024-03-25T05:50:45;7.15;;;4.20;;
59273;SDS011;45044;41.572;24.730;2024-03-25T05:53:11;8.18;;;3.92;;
59273;SDS011;45044;41.572;24.730;2024-03-25T05:55:36;9.05;;;5.78;;
59273;SDS011;45044;41.572;24.730;2024-03-25T05:58:02;10.30;;;6.43;;
59273;SDS011;45044;41.572;24.730;2024-03-25T06:00:29;7.35;;;4.03;;
59273;SDS011;45044;41.572;24.730;2024-03-25T06:02:56;8.63;;;4.85;;
59273;SDS011;45044;41.572;24.730;2024-03-25T06:05:22;13.00;;;7.45;;
59273;SDS011;45044;41.572;24.730;2024-03-25T06:07:48;7.75;;;4.40;;
59273;SDS011;45044;41.572;24.730;2024-03-25T06:10:13;9.75;;;6.18;;
59273;SDS011;45044;41.572;24.730;2024-03-25T06:12:39;7.60;;;4.13;;
59273;SDS011;45044;41.572;24.730;2024-03-25T06:15:05;6.40;;;3.55;;
59273;SDS011;45044;41.572;24.730;2024-03-25T06:17:31;6.22;;;2.53;;
59273;SDS011;45044;41.572;24.730;2024-03-25T06:19:57;5.30;;;2.95;;
59273;SDS011;45044;41.572;24.730;2024-03-25T06:22:23;6.50;;;3.45;;
59273;SDS011;45044;41.572;24.730;2024-03-25T06:24:49;7.05;;;3.78;;
59273;SDS011;45044;41.572;24.730;2024-03-25T06:27:19;17.30;;;10.02;;
59273;SDS011;45044;41.572;24.730;2024-03-25T06:29:45;23.33;;;11.25;;
59273;SDS011;45044;41.572;24.730;2024-03-25T06:32:11;23.83;;;12.07;;
59273;SDS011;45044;41.572;24.730;2024-03-25T06:34:56;18.13;;;9.60;;
59273;SDS011;45044;41.572;24.730;2024-03-25T06:37:25;11.85;;;6.78;;
59273;SDS011;45044;41.572;24.730;2024-03-25T06:39:51;8.73;;;4.78;;
59273;SDS011;45044;41.572;24.730;2024-03-25T06:42:16;3.90;;;1.85;;
59273;SDS011;45044;41.572;24.730;2024-03-25T06:44:42;2.95;;;1.17;;
59273;SDS011;45044;41.572;24.730;2024-03-25T06:47:08;1.70;;;1.08;;
59273;SDS011;45044;41.572;24.730;2024-03-25T06:49:34;1.52;;;0.90;;
59273;SDS011;45044;41.572;24.730;2024-03-25T06:52:00;1.92;;;0.73;;
59273;SDS011;45044;41.572;24.730;2024-03-25T06:54:26;3.78;;;1.60;;
59273;SDS011;45044;41.572;24.730;2024-03-25T06:56:51;6.88;;;1.42;;
59273;SDS011;45044;41.572;24.730;2024-03-25T06:59:17;2.92;;;1.05;;
59273;SDS011;45044;41.572;24.730;2024-03-25T07:01:43;2.65;;;1.10;;
59273;SDS011;45044;41.572;24.730;2024-03-25T07:04:11;2.13;;;0.70;;
59273;SDS011;45044;41.572;24.730;2024-03-25T07:06:37;6.45;;;2.50;;
59273;SDS011;45044;41.572;24.730;2024-03-25T07:09:03;2.22;;;1.20;;
59273;SDS011;45044;41.572;24.730;2024-03-25T07:11:29;2.17;;;1.17;;
59273;SDS011;45044;41.572;24.730;2024-03-25T07:13:54;3.47;;;1.92;;
59273;SDS011;45044;41.572;24.730;2024-03-25T07:16:20;1.85;;;0.80;;
59273;SDS011;45044;41.572;24.730;2024-03-25T07:18:46;1.88;;;1.25;;
59273;SDS011;45044;41.572;24.730;2024-03-25T07:21:11;2.42;;;1.15;;
59273;SDS011;45044;41.572;24.730;2024-03-25T07:23:37;1.40;;;0.70;;
59273;SDS011;45044;41.572;24.730;2024-03-25T07:26:03;1.95;;;1.02;;
59273;SDS011;45044;41.572;24.730;2024-03-25T07:28:28;0.90;;;0.55;;
59273;SDS011;45044;41.572;24.730;2024-03-25T07:30:54;0.95;;;0.60;;
59273;SDS011;45044;41.572;24.730;2024-03-25T07:33:20;2.45;;;0.98;;
59273;SDS011;45044;41.572;24.730;2024-03-25T07:35:51;1.10;;;1.00;;
59273;SDS011;45044;41.572;24.730;2024-03-25T07:38:17;1.13;;;0.60;;
59273;SDS011;45044;41.572;24.730;2024-03-25T07:40:42;2.20;;;1.20;;
59273;SDS011;45044;41.572;24.730;2024-03-25T07:43:09;2.35;;;1.08;;
59273;SDS011;45044;41.572;24.730;2024-03-25T07:45:34;1.55;;;1.10;;
59273;SDS011;45044;41.572;24.730;2024-03-25T07:48:00;0.55;;;0.55;;
59273;SDS011;45044;41.572;24.730;2024-03-25T07:50:26;1.38;;;0.80;;
59273;SDS011;45044;41.572;24.730;2024-03-25T07:52:51;0.70;;;0.45;;
59273;SDS011;45044;41.572;24.730;2024-03-25T07:55:17;1.48;;;0.77;;
59273;SDS011;45044;41.572;24.730;2024-03-25T07:57:44;0.85;;;0.60;;
59273;SDS011;45044;41.572;24.730;2024-03-25T08:00:09;3.03;;;0.90;;
59273;SDS011;45044;41.572;24.730;2024-03-25T08:02:38;2.38;;;1.20;;
59273;SDS011;45044;41.572;24.730;2024-03-25T08:05:04;2.83;;;1.25;;
59273;SDS011;45044;41.572;24.730;2024-03-25T08:07:30;4.38;;;1.80;;
59273;SDS011;45044;41.572;24.730;2024-03-25T08:09:56;3.60;;;1.42;;
59273;SDS011;45044;41.572;24.730;2024-03-25T08:12:22;2.42;;;1.30;;
59273;SDS011;45044;41.572;24.730;2024-03-25T08:14:48;4.30;;;2.10;;
59273;SDS011;45044;41.572;24.730;2024-03-25T08:17:13;2.55;;;1.40;;
59273;SDS011;45044;41.572;24.730;2024-03-25T08:19:39;1.85;;;1.02;;
59273;SDS011;45044;41.572;24.730;2024-03-25T08:22:05;1.95;;;0.90;;
59273;SDS011;45044;41.572;24.730;2024-03-25T08:24:30;4.45;;;1.83;;
59273;SDS011;45044;41.572;24.730;2024-03-25T08:26:56;2.38;;;1.10;;
59273;SDS011;45044;41.572;24.730;2024-03-25T08:29:22;4.18;;;2.00;;
59273;SDS011;45044;41.572;24.730;2024-03-25T08:31:48;2.15;;;1.65;;
59273;SDS011;45044;41.572;24.730;2024-03-25T08:34:14;3.92;;;1.88;;
59273;SDS011;45044;41.572;24.730;2024-03-25T08:36:39;1.92;;;0.80;;
59273;SDS011;45044;41.572;24.730;2024-03-25T08:39:05;2.72;;;1.08;;
59273;SDS011;45044;41.572;24.730;2024-03-25T08:41:31;3.13;;;1.80;;
59273;SDS011;45044;41.572;24.730;2024-03-25T08:43:58;1.77;;;0.90;;
59273;SDS011;45044;41.572;24.730;2024-03-25T08:46:23;2.33;;;0.95;;
59273;SDS011;45044;41.572;24.730;2024-03-25T08:48:49;2.60;;;1.30;;
59273;SDS011;45044;41.572;24.730;2024-03-25T08:51:15;2.35;;;1.20;;
59273;SDS011;45044;41.572;24.730;2024-03-25T08:53:40;1.83;;;0.98;;
59273;SDS011;45044;41.572;24.730;2024-03-25T08:56:06;2.42;;;1.13;;
59273;SDS011;45044;41.572;24.730;2024-03-25T08:58:32;4.22;;;2.13;;
59273;SDS011;45044;41.572;24.730;2024-03-25T09:00:58;6.40;;;3.17;;
59273;SDS011;45044;41.572;24.730;2024-03-25T09:03:23;3.55;;;2.03;;
59273;SDS011;45044;41.572;24.730;2024-03-25T09:05:49;3.25;;;2.03;;
59273;SDS011;45044;41.572;24.730;2024-03-25T09:08:19;5.80;;;2.90;;
59273;SDS011;45044;41.572;24.730;2024-03-25T09:10:44;3.72;;;2.33;;
59273;SDS011;45044;41.572;24.730;2024-03-25T09:13:32;4.25;;;2.30;;
59273;SDS011;45044;41.572;24.730;2024-03-25T09:15:58;2.85;;;1.90;;
59273;SDS011;45044;41.572;24.730;2024-03-25T09:18:23;2.70;;;1.33;;
59273;SDS011;45044;41.572;24.730;2024-03-25T09:20:50;2.28;;;1.20;;
59273;SDS011;45044;41.572;24.730;2024-03-25T09:23:15;2.85;;;1.58;;
59273;SDS011;45044;41.572;24.730;2024-03-25T09:25:50;3.50;;;1.83;;
59273;SDS011;45044;41.572;24.730;2024-03-25T09:28:16;4.55;;;1.50;;
59273;SDS011;45044;41.572;24.730;2024-03-25T09:30:42;4.90;;;2.20;;
59273;SDS011;45044;41.572;24.730;2024-03-25T09:33:08;3.65;;;2.13;;
59273;SDS011;45044;41.572;24.730;2024-03-25T09:35:34;3.90;;;2.15;;
59273;SDS011;45044;41.572;24.730;2024-03-25T09:38:00;4.10;;;1.95;;
59273;SDS011;45044;41.572;24.730;2024-03-25T09:40:26;3.28;;;1.67;;
59273;SDS011;45044;41.572;24.730;2024-03-25T09:43:02;3.85;;;2.35;;
59273;SDS011;45044;41.572;24.730;2024-03-25T09:45:29;4.15;;;2.35;;
59273;SDS011;45044;41.572;24.730;2024-03-25T09:47:56;4.20;;;2.63;;
59273;SDS011;45044;41.572;24.730;2024-03-25T09:50:22;3.33;;;1.77;;
59273;SDS011;45044;41.572;24.730;2024-03-25T09:52:48;8.23;;;3.88;;
59273;SDS011;45044;41.572;24.730;2024-03-25T09:55:14;6.65;;;3.15;;
59273;SDS011;45044;41.572;24.730;2024-03-25T09:57:41;5.18;;;2.78;;
59273;SDS011;45044;41.572;24.730;2024-03-25T10:00:08;5.88;;;3.03;;
59273;SDS011;45044;41.572;24.730;2024-03-25T10:02:35;4.35;;;2.10;;
59273;SDS011;45044;41.572;24.730;2024-03-25T10:05:02;6.28;;;3.70;;
59273;SDS011;45044;41.572;24.730;2024-03-25T10:07:28;4.22;;;1.85;;
59273;SDS011;45044;41.572;24.730;2024-03-25T10:09:54;5.25;;;2.38;;
59273;SDS011;45044;41.572;24.730;2024-03-25T10:12:21;3.33;;;1.88;;
59273;SDS011;45044;41.572;24.730;2024-03-25T10:14:47;5.82;;;2.63;;
59273;SDS011;45044;41.572;24.730;2024-03-25T10:17:13;3.70;;;2.15;;
59273;SDS011;45044;41.572;24.730;2024-03-25T10:19:39;4.70;;;2.22;;
59273;SDS011;45044;41.572;24.730;2024-03-25T10:22:08;4.93;;;2.60;;
59273;SDS011;45044;41.572;24.730;2024-03-25T10:24:38;11.20;;;3.88;;
59273;SDS011;45044;41.572;24.730;2024-03-25T10:27:16;7.85;;;3.05;;
59273;SDS011;45044;41.572;24.730;2024-03-25T10:29:45;3.58;;;2.00;;
59273;SDS011;45044;41.572;24.730;2024-03-25T10:32:15;7.53;;;3.42;;
59273;SDS011;45044;41.572;24.730;2024-03-25T10:34:41;7.70;;;3.72;;
59273;SDS011;45044;41.572;24.730;2024-03-25T10:37:10;5.15;;;2.42;;
59273;SDS011;45044;41.572;24.730;2024-03-25T10:39:47;4.97;;;2.17;;
59273;SDS011;45044;41.572;24.730;2024-03-25T10:42:14;6.68;;;3.17;;
59273;SDS011;45044;41.572;24.730;2024-03-25T10:44:46;6.07;;;3.22;;
59273;SDS011;45044;41.572;24.730;2024-03-25T10:47:16;8.98;;;4.15;;
59273;SDS011;45044;41.572;24.730;2024-03-25T10:49:57;5.70;;;2.88;;
59273;SDS011;45044;41.572;24.730;2024-03-25T10:52:24;8.55;;;4.03;;
59273;SDS011;45044;41.572;24.730;2024-03-25T10:54:52;6.38;;;3.17;;
59273;SDS011;45044;41.572;24.730;2024-03-25T10:57:22;3.88;;;1.92;;
59273;SDS011;45044;41.572;24.730;2024-03-25T10:59:48;4.28;;;1.80;;
59273;SDS011;45044;41.572;24.730;2024-03-25T11:02:14;2.97;;;1.35;;
59273;SDS011;45044;41.572;24.730;2024-03-25T11:04:43;8.57;;;3.38;;
59273;SDS011;45044;41.572;24.730;2024-03-25T11:07:14;6.68;;;3.45;;
59273;SDS011;45044;41.572;24.730;2024-03-25T11:09:40;9.82;;;3.60;;
59273;SDS011;45044;41.572;24.730;2024-03-25T11:12:06;6.63;;;3.08;;
59273;SDS011;45044;41.572;24.730;2024-03-25T11:14:35;6.20;;;2.38;;
59273;SDS011;45044;41.572;24.730;2024-03-25T11:17:01;3.70;;;1.52;;
59273;SDS011;45044;41.572;24.730;2024-03-25T11:19:28;3.22;;;1.52;;
59273;SDS011;45044;41.572;24.730;2024-03-25T11:22:06;4.00;;;1.88;;
59273;SDS011;45044;41.572;24.730;2024-03-25T11:24:34;3.90;;;1.90;;
59273;SDS011;45044;41.572;24.730;2024-03-25T11:27:07;11.20;;;5.07;;
59273;SDS011;45044;41.572;24.730;2024-03-25T11:29:33;5.32;;;2.20;;
59273;SDS011;45044;41.572;24.730;2024-03-25T11:32:00;3.60;;;1.65;;
59273;SDS011;45044;41.572;24.730;2024-03-25T11:34:29;2.40;;;1.30;;
59273;SDS011;45044;41.572;24.730;2024-03-25T11:36:55;5.55;;;2.38;;
59273;SDS011;45044;41.572;24.730;2024-03-25T11:39:23;3.17;;;1.58;;
59273;SDS011;45044;41.572;24.730;2024-03-25T11:41:52;3.35;;;1.38;;
59273;SDS011;45044;41.572;24.730;2024-03-25T11:44:18;3.80;;;1.60;;
59273;SDS011;45044;41.572;24.730;2024-03-25T11:46:44;3.95;;;1.80;;
59273;SDS011;45044;41.572;24.730;2024-03-25T11:49:14;5.07;;;1.92;;
59273;SDS011;45044;41.572;24.730;2024-03-25T11:51:42;2.53;;;1.50;;
59273;SDS011;45044;41.572;24.730;2024-03-25T11:54:10;2.92;;;1.35;;
59273;SDS011;45044;41.572;24.730;2024-03-25T11:56:36;2.63;;;1.90;;
59273;SDS011;45044;41.572;24.730;2024-03-25T11:59:03;5.00;;;1.98;;
59273;SDS011;45044;41.572;24.730;2024-03-25T12:01:29;5.25;;;2.60;;
59273;SDS011;45044;41.572;24.730;2024-03-25T12:03:56;4.68;;;1.77;;
59273;SDS011;45044;41.572;24.730;2024-03-25T12:06:21;3.05;;;1.52;;
59273;SDS011;45044;41.572;24.730;2024-03-25T12:08:47;3.13;;;1.40;;
59273;SDS011;45044;41.572;24.730;2024-03-25T12:11:32;2.70;;;1.17;;
59273;SDS011;45044;41.572;24.730;2024-03-25T12:13:59;2.95;;;1.35;;
59273;SDS011;45044;41.572;24.730;2024-03-25T12:16:25;3.08;;;1.50;;
59273;SDS011;45044;41.572;24.730;2024-03-25T12:18:51;1.65;;;1.02;;
59273;SDS011;45044;41.572;24.730;2024-03-25T12:21:18;2.63;;;1.30;;
59273;SDS011;45044;41.572;24.730;2024-03-25T12:23:45;2.25;;;1.10;;
59273;SDS011;45044;41.572;24.730;2024-03-25T12:26:12;2.45;;;1.10;;
59273;SDS011;45044;41.572;24.730;2024-03-25T12:28:39;4.22;;;1.75;;
59273;SDS011;45044;41.572;24.730;2024-03-25T12:31:08;3.55;;;1.85;;
59273;SDS011;45044;41.572;24.730;2024-03-25T12:33:45;4.57;;;1.75;;
59273;SDS011;45044;41.572;24.730;2024-03-25T12:36:13;2.85;;;1.30;;
59273;SDS011;45044;41.572;24.730;2024-03-25T12:38:39;4.68;;;1.65;;
59273;SDS011;45044;41.572;24.730;2024-03-25T12:43:31;2.55;;;1.30;;
59273;SDS011;45044;41.572;24.730;2024-03-25T12:45:58;2.90;;;1.38;;
59273;SDS011;45044;41.572;24.730;2024-03-25T12:48:24;2.75;;;1.30;;
59273;SDS011;45044;41.572;24.730;2024-03-25T12:50:51;2.08;;;1.33;;
59273;SDS011;45044;41.572;24.730;2024-03-25T12:53:17;1.67;;;1.20;;
59273;SDS011;45044;41.572;24.730;2024-03-25T12:55:44;3.88;;;1.83;;
59273;SDS011;45044;41.572;24.730;2024-03-25T12:58:10;3.00;;;1.48;;
59273;SDS011;45044;41.572;24.730;2024-03-25T13:00:36;2.03;;;1.17;;
59273;SDS011;45044;41.572;24.730;2024-03-25T13:03:05;3.05;;;1.33;;
59273;SDS011;45044;41.572;24.730;2024-03-25T13:05:33;2.78;;;1.50;;
59273;SDS011;45044;41.572;24.730;2024-03-25T13:08:00;3.22;;;1.60;;
59273;SDS011;45044;41.572;24.730;2024-03-25T13:10:26;3.85;;;1.80;;
59273;SDS011;45044;41.572;24.730;2024-03-25T13:12:52;4.18;;;1.45;;
59273;SDS011;45044;41.572;24.730;2024-03-25T13:15:18;2.38;;;1.10;;
59273;SDS011;45044;41.572;24.730;2024-03-25T13:17:44;2.13;;;1.10;;
59273;SDS011;45044;41.572;24.730;2024-03-25T13:20:10;1.90;;;1.30;;
59273;SDS011;45044;41.572;24.730;2024-03-25T13:22:36;4.53;;;1.38;;
59273;SDS011;45044;41.572;24.730;2024-03-25T13:25:02;1.92;;;1.10;;
59273;SDS011;45044;41.572;24.730;2024-03-25T13:27:29;2.75;;;1.30;;
59273;SDS011;45044;41.572;24.730;2024-03-25T13:29:55;4.30;;;2.17;;
59273;SDS011;45044;41.572;24.730;2024-03-25T13:32:22;5.22;;;2.33;;
59273;SDS011;45044;41.572;24.730;2024-03-25T13:34:49;7.45;;;2.50;;
59273;SDS011;45044;41.572;24.730;2024-03-25T13:37:15;2.53;;;1.10;;
59273;SDS011;45044;41.572;24.730;2024-03-25T13:39:41;4.80;;;1.70;;
59273;SDS011;45044;41.572;24.730;2024-03-25T13:42:07;1.85;;;1.67;;
59273;SDS011;45044;41.572;24.730;2024-03-25T13:44:33;3.22;;;1.70;;
59273;SDS011;45044;41.572;24.730;2024-03-25T13:46:58;1.80;;;1.00;;
59273;SDS011;45044;41.572;24.730;2024-03-25T13:49:24;3.03;;;1.48;;
59273;SDS011;45044;41.572;24.730;2024-03-25T13:51:51;1.85;;;1.05;;
59273;SDS011;45044;41.572;24.730;2024-03-25T13:54:22;1.48;;;1.10;;
59273;SDS011;45044;41.572;24.730;2024-03-25T13:56:47;1.80;;;1.05;;
59273;SDS011;45044;41.572;24.730;2024-03-25T13:59:13;1.17;;;0.90;;
59273;SDS011;45044;41.572;24.730;2024-03-25T14:01:40;2.30;;;1.20;;
59273;SDS011;45044;41.572;24.730;2024-03-25T14:04:06;2.63;;;1.25;;
59273;SDS011;45044;41.572;24.730;2024-03-25T14:06:32;2.13;;;1.27;;
59273;SDS011;45044;41.572;24.730;2024-03-25T14:08:58;2.35;;;1.10;;
59273;SDS011;45044;41.572;24.730;2024-03-25T14:11:25;3.05;;;1.40;;
59273;SDS011;45044;41.572;24.730;2024-03-25T14:13:50;2.47;;;1.23;;
59273;SDS011;45044;41.572;24.730;2024-03-25T14:16:16;3.67;;;1.40;;
59273;SDS011;45044;41.572;24.730;2024-03-25T14:18:43;2.25;;;1.45;;
59273;SDS011;45044;41.572;24.730;2024-03-25T14:21:09;8.00;;;3.72;;
59273;SDS011;45044;41.572;24.730;2024-03-25T14:23:36;10.20;;;3.38;;
59273;SDS011;45044;41.572;24.730;2024-03-25T14:26:02;9.13;;;2.95;;
59273;SDS011;45044;41.572;24.730;2024-03-25T14:28:28;4.47;;;1.98;;
59273;SDS011;45044;41.572;24.730;2024-03-25T14:30:54;6.78;;;3.65;;